Time;durP1;ratioP1;P1;durP2;ratioP2;P2;SDS_P1;SDS_P2;PMS_P1;PMS_P2;Temp;Humidity;BMP_temperature;BMP_pressure;BME280_temperature;BME280_humidity;BME280_pressure;Samples;Min_cycle;Max_cycle;Signal;HPM_P1;HPM_P2
2022/03/07 00:01:27;;;;;;;12.63;9.60;;;;;;;-1.85;100.00;101581.72;5052131;28;20059;-64
2022/03/07 00:03:54;;;;;;;15.02;9.52;;;;;;;-1.86;100.00;101581.69;5047543;28;20033;-64
2022/03/07 00:06:19;;;;;;;14.85;9.63;;;;;;;-1.87;100.00;101578.25;5052398;28;20024;-64
2022/03/07 00:08:44;;;;;;;12.23;9.40;;;;;;;-1.86;100.00;101571.41;5051195;28;20040;-64
2022/03/07 00:11:10;;;;;;;13.63;9.18;;;;;;;-1.82;100.00;101570.59;5051859;28;20074;-64
2022/03/07 00:13:35;;;;;;;13.45;9.80;;;;;;;-1.81;100.00;101574.91;5052033;28;20117;-64
2022/03/07 00:16:02;;;;;;;13.52;9.38;;;;;;;-1.88;100.00;101573.06;5052023;28;20483;-64
2022/03/07 00:18:27;;;;;;;14.15;9.05;;;;;;;-1.86;100.00;101582.53;5051796;28;20033;-64
2022/03/07 00:20:53;;;;;;;15.75;9.45;;;;;;;-1.88;100.00;101573.94;5083701;28;20052;-64
2022/03/07 00:23:18;;;;;;;15.32;10.18;;;;;;;-1.86;100.00;101577.38;5050702;28;20119;-64
2022/03/07 00:25:43;;;;;;;13.25;9.32;;;;;;;-1.92;100.00;101571.25;5052102;28;20063;-64
2022/03/07 00:28:09;;;;;;;14.70;9.30;;;;;;;-1.90;100.00;101579.91;5051924;28;20372;-64
2022/03/07 00:30:34;;;;;;;14.70;9.40;;;;;;;-1.95;100.00;101578.94;5052414;28;20410;-64
2022/03/07 00:33:00;;;;;;;13.98;9.27;;;;;;;-1.96;100.00;101579.78;5050603;28;20080;-64
2022/03/07 00:35:25;;;;;;;13.70;9.38;;;;;;;-2.09;100.00;101571.81;5046061;28;20025;-64
2022/03/07 00:37:51;;;;;;;13.40;8.93;;;;;;;-1.97;100.00;101585.75;5051159;28;20162;-64
2022/03/07 00:40:16;;;;;;;11.55;9.15;;;;;;;-2.00;100.00;101583.13;5046903;28;20727;-64
2022/03/07 00:42:41;;;;;;;11.43;7.82;;;;;;;-2.03;100.00;101583.94;5051678;28;20021;-64
2022/03/07 00:45:08;;;;;;;12.82;8.75;;;;;;;-2.16;100.00;101580.25;5051765;28;20087;-64
2022/03/07 00:47:34;;;;;;;12.07;8.77;;;;;;;-2.15;100.00;101588.84;5051816;28;20029;-64
2022/03/07 00:49:59;;;;;;;12.15;9.27;;;;;;;-2.16;100.00;101589.66;5050423;28;20096;-64
2022/03/07 00:52:25;;;;;;;14.35;9.27;;;;;;;-2.08;100.00;101599.28;5050995;28;20123;-64
2022/03/07 00:54:50;;;;;;;11.55;8.30;;;;;;;-2.13;100.00;101593.16;5050508;28;20105;-64
2022/03/07 00:57:15;;;;;;;12.15;8.70;;;;;;;-2.19;100.00;101593.06;5050384;28;20029;-64
2022/03/07 00:59:41;;;;;;;13.70;9.00;;;;;;;-2.14;100.00;101591.44;5051299;28;20028;-64
2022/03/07 01:02:06;;;;;;;11.98;9.00;;;;;;;-2.14;100.00;101606.91;5051261;28;20116;-64
2022/03/07 01:04:32;;;;;;;14.35;8.98;;;;;;;-2.17;100.00;101599.13;5050923;28;20032;-64
2022/03/07 01:06:58;;;;;;;14.98;9.30;;;;;;;-2.24;100.00;101604.09;5083728;28;20123;-64
2022/03/07 01:09:23;;;;;;;15.63;9.02;;;;;;;-2.27;100.00;101607.47;5051267;28;20091;-64
2022/03/07 01:11:49;;;;;;;13.50;9.88;;;;;;;-2.30;100.00;101604.81;5051518;28;20021;-64
2022/03/07 01:14:14;;;;;;;16.70;9.10;;;;;;;-2.31;100.00;101608.25;5050778;28;20648;-64
2022/03/07 01:16:39;;;;;;;17.52;9.75;;;;;;;-2.29;100.00;101606.56;5050662;28;20106;-64
2022/03/07 01:19:05;;;;;;;14.52;9.23;;;;;;;-2.32;100.00;101601.34;5049999;28;20024;-64
2022/03/07 01:21:30;;;;;;;15.75;9.30;;;;;;;-2.39;100.00;101599.47;5049289;28;20021;-64
2022/03/07 01:23:55;;;;;;;14.55;8.43;;;;;;;-2.54;100.00;101582.88;5050823;28;20531;-65
2022/03/07 01:26:21;;;;;;;14.00;8.80;;;;;;;-2.56;100.00;101600.81;5049848;28;20029;-64
2022/03/07 01:28:46;;;;;;;16.90;9.13;;;;;;;-2.64;100.00;101592.09;5051128;28;20033;-64
2022/03/07 01:31:12;;;;;;;14.60;9.23;;;;;;;-2.68;100.00;101595.41;5050842;28;20017;-64
2022/03/07 01:33:37;;;;;;;13.80;9.68;;;;;;;-2.74;100.00;101585.00;5050565;28;20528;-64
2022/03/07 01:36:03;;;;;;;16.75;9.57;;;;;;;-2.70;100.00;101592.78;5047841;28;20036;-64
2022/03/07 01:38:28;;;;;;;13.43;9.25;;;;;;;-2.72;100.00;101588.47;5050103;28;20479;-64
2022/03/07 01:40:53;;;;;;;12.73;9.40;;;;;;;-2.78;100.00;101588.31;5051341;28;20475;-65
2022/03/07 01:43:19;;;;;;;15.98;10.23;;;;;;;-2.82;100.00;101589.09;5051135;28;20020;-64
2022/03/07 01:45:44;;;;;;;13.63;9.65;;;;;;;-2.87;100.00;101586.41;5052828;28;20029;-64
2022/03/07 01:48:10;;;;;;;13.57;9.50;;;;;;;-2.93;100.00;101587.94;5055412;28;20459;-64
2022/03/07 01:50:35;;;;;;;15.15;10.77;;;;;;;-2.90;100.00;101582.88;5055372;28;20040;-65
2022/03/07 01:53:01;;;;;;;25.33;10.50;;;;;;;-2.91;100.00;101576.03;5050922;28;20476;-64
2022/03/07 01:55:26;;;;;;;13.88;10.40;;;;;;;-2.86;100.00;101582.13;5053965;28;20159;-64
2022/03/07 01:57:52;;;;;;;16.83;10.40;;;;;;;-2.92;100.00;101574.28;5055897;28;20074;-64
2022/03/07 02:00:22;;;;;;;17.70;10.45;;;;;;;-2.94;100.00;101570.81;5054978;28;20021;-64
2022/03/07 02:02:48;;;;;;;14.88;10.75;;;;;;;-2.98;100.00;101566.44;5055550;28;20024;-64
2022/03/07 02:05:13;;;;;;;15.38;11.63;;;;;;;-3.02;100.00;101567.19;5055540;28;20033;-64
2022/03/07 02:07:39;;;;;;;16.35;11.05;;;;;;;-3.00;100.00;101570.66;5052778;28;20029;-64
2022/03/07 02:10:07;;;;;;;16.73;11.40;;;;;;;-2.99;100.00;101563.00;5054651;28;20037;-64
2022/03/07 02:12:33;;;;;;;20.75;11.80;;;;;;;-2.94;100.00;101558.81;5053369;28;20493;-64
2022/03/07 02:14:58;;;;;;;18.88;11.82;;;;;;;-2.93;100.00;101557.09;5054807;28;20107;-64
2022/03/07 02:17:23;;;;;;;17.98;11.90;;;;;;;-2.95;100.00;101554.53;5054852;28;20434;-64
2022/03/07 02:19:49;;;;;;;16.80;12.25;;;;;;;-2.97;100.00;101556.16;5054748;28;20025;-64
2022/03/07 02:22:17;;;;;;;16.30;10.82;;;;;;;-2.97;100.00;101555.31;5054115;28;20072;-64
2022/03/07 02:24:43;;;;;;;17.95;11.15;;;;;;;-3.03;100.00;101555.16;5053500;28;20025;-64
2022/03/07 02:27:10;;;;;;;16.65;11.13;;;;;;;-2.98;100.00;101563.88;5054797;28;20025;-64
2022/03/07 02:29:36;;;;;;;16.10;11.00;;;;;;;-3.04;100.00;101564.56;5053903;28;20033;-64
2022/03/07 02:32:03;;;;;;;17.60;11.43;;;;;;;-3.09;100.00;101566.19;5053354;28;20024;-64
2022/03/07 02:34:28;;;;;;;18.13;11.50;;;;;;;-3.13;100.00;101559.22;5053507;28;20017;-64
2022/03/07 02:36:54;;;;;;;17.25;11.55;;;;;;;-3.17;100.00;101559.97;5052925;28;20044;-64
2022/03/07 02:39:19;;;;;;;15.45;11.35;;;;;;;-3.26;100.00;101568.34;5054301;28;20826;-64
2022/03/07 02:41:45;;;;;;;15.93;11.82;;;;;;;-3.28;100.00;101572.56;5054126;28;20041;-64
2022/03/07 02:44:10;;;;;;;15.88;10.65;;;;;;;-3.26;100.00;101563.19;5054349;28;20024;-64
2022/03/07 02:46:36;;;;;;;15.18;11.82;;;;;;;-3.21;100.00;101561.59;5054395;28;20119;-64
2022/03/07 02:49:03;;;;;;;15.02;11.32;;;;;;;-3.21;100.00;101556.47;5054033;28;20017;-64
2022/03/07 02:51:28;;;;;;;18.02;11.30;;;;;;;-3.28;100.00;101549.44;5054350;28;20024;-64
2022/03/07 02:53:53;;;;;;;19.88;13.15;;;;;;;-3.27;100.00;101556.31;5054177;28;20024;-64
2022/03/07 02:56:19;;;;;;;17.45;12.63;;;;;;;-3.27;100.00;101558.88;5053423;28;20036;-64
2022/03/07 02:58:44;;;;;;;17.20;12.35;;;;;;;-3.29;100.00;101552.84;5054364;28;20033;-64
2022/03/07 03:01:10;;;;;;;17.70;12.38;;;;;;;-3.33;100.00;101556.19;5054344;28;20486;-64
2022/03/07 03:03:36;;;;;;;17.90;11.65;;;;;;;-3.45;100.00;101540.47;5054158;28;20115;-64
2022/03/07 03:06:02;;;;;;;19.77;13.40;;;;;;;-3.43;100.00;101545.63;5054092;28;20025;-64
2022/03/07 03:08:27;;;;;;;19.70;12.68;;;;;;;-3.49;100.00;101538.66;5052210;28;20032;-64
2022/03/07 03:10:54;;;;;;;18.23;12.13;;;;;;;-3.38;100.00;101551.75;5052471;28;20446;-64
2022/03/07 03:13:22;;;;;;;17.55;12.20;;;;;;;-3.41;100.00;101552.53;5052472;28;20124;-63
2022/03/07 03:15:48;;;;;;;21.67;12.77;;;;;;;-3.45;100.00;101555.88;5050478;28;20017;-63
2022/03/07 03:18:14;;;;;;;15.32;12.30;;;;;;;-3.49;100.00;101542.91;5052960;28;20136;-63
2022/03/07 03:20:40;;;;;;;18.17;13.63;;;;;;;-3.41;100.00;101552.53;5052416;28;20099;-63
2022/03/07 03:23:05;;;;;;;20.30;12.20;;;;;;;-3.43;100.00;101551.63;5052990;28;20437;-63
2022/03/07 03:25:31;;;;;;;21.15;14.43;;;;;;;-3.64;100.00;101533.13;5009671;28;20207;-63
2022/03/07 03:27:56;;;;;;;21.08;14.45;;;;;;;-3.48;100.00;101549.81;5053771;28;20029;-62
2022/03/07 03:30:21;;;;;;;18.52;13.18;;;;;;;-3.42;100.00;101558.53;5052395;28;20036;-63
2022/03/07 03:32:47;;;;;;;28.88;13.98;;;;;;;-3.36;100.00;101561.25;5053837;28;20501;-63
2022/03/07 03:35:12;;;;;;;22.48;13.95;;;;;;;-3.30;100.00;101563.94;5053116;28;20047;-63
2022/03/07 03:37:38;;;;;;;18.73;13.38;;;;;;;-3.28;100.00;101564.00;5053528;28;20043;-63
2022/03/07 03:40:05;;;;;;;17.13;13.60;;;;;;;-3.20;100.00;101563.34;5053359;28;20039;-63
2022/03/07 03:42:31;;;;;;;18.10;12.75;;;;;;;-3.16;100.00;101562.59;5053525;28;20155;-63
2022/03/07 03:44:56;;;;;;;18.23;13.27;;;;;;;-3.20;100.00;101563.34;5053800;28;20134;-63
2022/03/07 03:47:21;;;;;;;16.60;13.13;;;;;;;-3.13;100.00;101564.34;5053579;28;20021;-63
2022/03/07 03:49:47;;;;;;;17.98;12.63;;;;;;;-3.10;100.00;101564.44;5025133;28;20029;-63
2022/03/07 03:52:12;;;;;;;18.23;13.90;;;;;;;-3.04;100.00;101566.28;5052275;28;20021;-63
2022/03/07 03:54:38;;;;;;;17.13;12.77;;;;;;;-2.94;100.00;101570.81;5051625;28;20505;-63
2022/03/07 03:57:03;;;;;;;23.02;13.63;;;;;;;-2.90;100.00;101554.59;5053467;28;20033;-63
2022/03/07 03:59:29;;;;;;;17.58;12.55;;;;;;;-2.86;100.00;101569.28;5053546;28;20486;-64
2022/03/07 04:01:54;;;;;;;19.77;13.40;;;;;;;-2.85;100.00;101565.88;5053463;28;20108;-64
2022/03/07 04:04:19;;;;;;;17.98;12.27;;;;;;;-2.85;100.00;101576.16;5053182;28;20025;-64
2022/03/07 04:06:45;;;;;;;18.50;13.25;;;;;;;-2.87;100.00;101575.28;5052563;28;20372;-62
2022/03/07 04:09:21;;;;;;;20.98;13.10;;;;;;;-2.86;100.00;101569.28;5052828;28;20106;-63
2022/03/07 04:11:47;;;;;;;23.73;13.57;;;;;;;-2.90;100.00;101575.16;5052126;28;20025;-62
2022/03/07 04:14:14;;;;;;;18.80;12.98;;;;;;;-2.90;100.00;101577.75;5052883;28;20028;-62
2022/03/07 04:16:39;;;;;;;23.40;14.48;;;;;;;-2.95;100.00;101574.22;5053188;28;20028;-62
2022/03/07 04:19:06;;;;;;;27.17;14.30;;;;;;;-2.93;100.00;101575.09;5051963;28;20068;-62
2022/03/07 04:21:32;;;;;;;18.33;12.88;;;;;;;-2.94;100.00;101575.97;5053066;28;20028;-62
2022/03/07 04:23:57;;;;;;;17.20;13.75;;;;;;;-2.92;100.00;101575.16;5053069;28;20029;-63
2022/03/07 04:26:23;;;;;;;20.80;13.57;;;;;;;-2.86;100.00;101579.56;5052990;28;20037;-62
2022/03/07 04:28:48;;;;;;;22.27;14.50;;;;;;;-2.87;100.00;101582.97;5053156;28;20071;-63
2022/03/07 04:31:13;;;;;;;19.10;14.05;;;;;;;-2.91;100.00;101576.03;5053113;28;20100;-63
2022/03/07 04:33:39;;;;;;;20.13;13.10;;;;;;;-2.96;100.00;101582.75;5053032;28;20502;-62
2022/03/07 04:36:05;;;;;;;18.80;13.35;;;;;;;-3.02;100.00;101577.47;5052942;28;20041;-64
2022/03/07 04:38:30;;;;;;;20.20;13.18;;;;;;;-3.11;100.00;101568.69;5052789;28;20041;-62
2022/03/07 04:40:56;;;;;;;25.67;14.48;;;;;;;-3.10;100.00;101580.72;5052298;28;20025;-62
2022/03/07 04:43:22;;;;;;;17.42;13.15;;;;;;;-3.11;100.00;101578.97;5052314;28;20361;-63
2022/03/07 04:45:47;;;;;;;17.88;13.38;;;;;;;-3.17;100.00;101575.38;5046203;28;20043;-62
2022/03/07 04:48:14;;;;;;;20.17;14.65;;;;;;;-3.25;100.00;101585.50;5051008;28;20463;-62
2022/03/07 04:50:40;;;;;;;22.05;14.10;;;;;;;-3.27;100.00;101592.28;5052223;28;20423;-62
2022/03/07 04:53:05;;;;;;;20.88;14.15;;;;;;;-3.29;100.00;101583.69;5051976;28;20033;-62
2022/03/07 04:55:31;;;;;;;20.45;15.23;;;;;;;-3.27;100.00;101582.00;5052095;28;20475;-63
2022/03/07 04:57:56;;;;;;;19.85;15.07;;;;;;;-3.33;100.00;101579.28;5047619;28;20410;-62
2022/03/07 05:00:21;;;;;;;22.35;14.90;;;;;;;-3.38;100.00;101577.47;5051574;28;20032;-62
2022/03/07 05:02:47;;;;;;;19.73;15.45;;;;;;;-3.35;100.00;101585.25;5051337;28;20035;-62
2022/03/07 05:05:12;;;;;;;22.38;15.90;;;;;;;-3.45;100.00;101570.44;5051823;28;20036;-62
2022/03/07 05:07:38;;;;;;;22.67;15.98;;;;;;;-3.48;100.00;101590.91;5052343;28;20025;-62
2022/03/07 05:10:04;;;;;;;25.25;15.65;;;;;;;-3.56;100.00;101572.72;5052059;28;20490;-62
2022/03/07 05:12:29;;;;;;;21.38;15.68;;;;;;;-3.58;100.00;101578.66;5051076;28;20028;-62
2022/03/07 05:14:55;;;;;;;22.13;15.90;;;;;;;-3.59;100.00;101582.03;5052237;28;20024;-62
2022/03/07 05:17:20;;;;;;;22.65;16.38;;;;;;;-3.67;100.00;101579.25;5051795;28;20028;-62
2022/03/07 05:19:47;;;;;;;21.58;15.80;;;;;;;-3.79;100.00;101573.81;5052337;28;20021;-62
2022/03/07 05:22:13;;;;;;;22.92;15.75;;;;;;;-3.77;100.00;101593.56;5048129;28;20443;-62
2022/03/07 05:24:39;;;;;;;24.67;16.25;;;;;;;-3.91;100.00;101579.47;5007717;28;20029;-62
2022/03/07 05:27:05;;;;;;;22.42;16.17;;;;;;;-3.86;100.00;101600.16;5025823;28;20036;-62
2022/03/07 05:29:31;;;;;;;21.20;15.25;;;;;;;-3.86;100.00;101595.00;5051026;28;20037;-62
2022/03/07 05:31:56;;;;;;;23.90;16.08;;;;;;;-3.86;100.00;101592.44;5052275;28;20055;-62
2022/03/07 05:34:21;;;;;;;22.30;15.35;;;;;;;-3.85;100.00;101594.19;5052211;28;20382;-62
2022/03/07 05:36:47;;;;;;;22.20;15.68;;;;;;;-3.93;100.00;101580.28;5051903;28;20025;-62
2022/03/07 05:39:12;;;;;;;23.88;17.20;;;;;;;-3.86;100.00;101592.44;5051951;28;20028;-62
2022/03/07 05:41:37;;;;;;;27.95;15.98;;;;;;;-3.84;100.00;101595.91;5051982;28;20032;-63
2022/03/07 05:44:03;;;;;;;22.88;15.50;;;;;;;-3.86;100.00;101600.16;5052341;28;20028;-62
2022/03/07 05:46:29;;;;;;;23.98;15.40;;;;;;;-3.83;100.00;101610.50;5051921;28;20028;-62
2022/03/07 05:48:54;;;;;;;25.10;16.92;;;;;;;-3.82;100.00;101605.38;5052295;28;20448;-62
2022/03/07 05:51:23;;;;;;;21.73;15.73;;;;;;;-3.87;100.00;101600.97;5051021;28;20479;-62
2022/03/07 05:53:50;;;;;;;24.65;15.32;;;;;;;-3.89;100.00;101605.19;5052445;28;20056;-62
2022/03/07 05:56:15;;;;;;;22.20;15.88;;;;;;;-3.95;100.00;101605.00;5052100;28;20071;-62
2022/03/07 05:58:41;;;;;;;23.23;16.35;;;;;;;-4.01;100.00;101597.16;5049917;28;20067;-62
2022/03/07 06:01:06;;;;;;;24.65;16.45;;;;;;;-3.91;100.00;101614.53;5052356;28;20052;-62
2022/03/07 06:03:31;;;;;;;22.52;16.05;;;;;;;-3.92;100.00;101608.53;5048004;28;20422;-62
2022/03/07 06:05:57;;;;;;;23.65;15.38;;;;;;;-3.97;100.00;101614.38;5052186;28;20052;-62
2022/03/07 06:08:22;;;;;;;20.77;14.85;;;;;;;-4.01;100.00;101615.09;5051875;28;20060;-62
2022/03/07 06:10:48;;;;;;;24.52;15.60;;;;;;;-4.01;100.00;101609.97;5048632;28;20424;-62
2022/03/07 06:13:14;;;;;;;23.23;14.88;;;;;;;-4.00;100.00;101607.47;5052173;28;20100;-62
2022/03/07 06:15:43;;;;;;;21.15;15.52;;;;;;;-3.96;100.00;101608.41;5052005;28;20117;-62
2022/03/07 06:18:09;;;;;;;21.85;14.75;;;;;;;-4.02;100.00;101600.56;5052172;28;20372;-62
2022/03/07 06:20:35;;;;;;;20.50;14.13;;;;;;;-3.96;100.00;101609.28;5050687;28;20367;-62
2022/03/07 06:23:00;;;;;;;25.25;14.50;;;;;;;-3.93;100.00;101611.06;5051974;28;20033;-62
2022/03/07 06:25:27;;;;;;;23.65;14.57;;;;;;;-3.90;100.00;101614.59;5051789;28;20079;-62
2022/03/07 06:27:53;;;;;;;20.70;13.80;;;;;;;-3.85;100.00;101614.72;5051937;28;20040;-62
2022/03/07 06:30:18;;;;;;;22.02;14.77;;;;;;;-3.81;100.00;101616.53;5053658;28;20047;-62
2022/03/07 06:32:43;;;;;;;28.33;15.35;;;;;;;-3.75;100.00;101611.59;5055302;28;20017;-62
2022/03/07 06:35:09;;;;;;;22.20;14.95;;;;;;;-3.75;100.00;101611.59;5055615;28;20382;-62
2022/03/07 06:37:34;;;;;;;18.33;13.48;;;;;;;-3.76;100.00;101609.84;5053801;28;20024;-62
2022/03/07 06:39:59;;;;;;;23.35;14.50;;;;;;;-3.72;100.00;101609.94;5055472;28;20032;-62
2022/03/07 06:42:25;;;;;;;24.83;14.65;;;;;;;-3.66;100.00;101606.69;5054030;28;20033;-62
2022/03/07 06:44:50;;;;;;;17.52;13.88;;;;;;;-3.60;100.00;101617.13;5055230;28;20037;-61
2022/03/07 06:47:16;;;;;;;18.52;13.63;;;;;;;-3.61;100.00;101599.97;5055010;28;20017;-61
2022/03/07 06:49:47;;;;;;;22.25;13.75;;;;;;;-3.49;100.00;101610.56;5055199;28;20040;-62
2022/03/07 06:52:12;;;;;;;19.98;13.90;;;;;;;-3.40;100.00;101621.06;5054321;28;20502;-62
2022/03/07 06:54:38;;;;;;;18.23;13.80;;;;;;;-3.34;100.00;101620.34;5053695;28;20053;-62
2022/03/07 06:57:03;;;;;;;22.20;13.70;;;;;;;-3.29;100.00;101624.78;5054606;28;20021;-62
2022/03/07 06:59:29;;;;;;;17.52;12.43;;;;;;;-3.23;100.00;101635.22;5054462;28;20434;-62
2022/03/07 07:01:55;;;;;;;16.30;11.60;;;;;;;-3.20;100.00;101634.41;5054291;28;20391;-62
2022/03/07 07:04:20;;;;;;;18.83;11.98;;;;;;;-3.16;100.00;101637.13;5053160;28;20020;-62
2022/03/07 07:06:46;;;;;;;16.38;11.70;;;;;;;-3.10;100.00;101634.69;5054412;28;20544;-62
2022/03/07 07:09:11;;;;;;;17.08;11.35;;;;;;;-3.11;100.00;101622.66;5054227;28;20033;-62
2022/03/07 07:11:36;;;;;;;17.45;11.95;;;;;;;-2.96;100.00;101629.03;5027703;28;20021;-62
2022/03/07 07:14:03;;;;;;;17.23;11.25;;;;;;;-2.88;100.00;101633.53;5054147;28;20052;-62
2022/03/07 07:16:28;;;;;;;19.20;11.25;;;;;;;-2.80;100.00;101641.41;5036917;28;20020;-62
2022/03/07 07:18:54;;;;;;;15.65;11.13;;;;;;;-2.70;100.00;101633.94;5008913;28;20028;-62
2022/03/07 07:21:19;;;;;;;15.38;10.27;;;;;;;-2.62;100.00;101628.97;5008637;28;20982;-62
2022/03/07 07:23:44;;;;;;;14.82;10.32;;;;;;;-2.54;100.00;101639.44;5007914;28;20025;-62
2022/03/07 07:26:10;;;;;;;15.18;9.60;;;;;;;-2.51;100.00;101640.38;5008588;28;20028;-62
2022/03/07 07:28:36;;;;;;;20.55;10.48;;;;;;;-2.50;100.00;101630.97;5009802;28;20354;-62
2022/03/07 07:31:01;;;;;;;14.05;9.38;;;;;;;-2.40;100.00;101638.06;5009872;28;20132;-62
2022/03/07 07:33:26;;;;;;;17.75;10.18;;;;;;;-2.37;100.00;101639.00;5009029;28;20017;-62
2022/03/07 07:35:52;;;;;;;12.82;9.18;;;;;;;-2.29;100.00;101642.59;5007980;28;20934;-62
2022/03/07 07:38:19;;;;;;;11.48;8.75;;;;;;;-2.20;100.00;101637.63;5005431;28;20135;-62
2022/03/07 07:40:44;;;;;;;13.60;9.15;;;;;;;-2.14;100.00;101639.50;5008338;28;20203;-62
2022/03/07 07:43:10;;;;;;;15.18;8.70;;;;;;;-2.07;100.00;101644.81;5008818;28;20951;-62
2022/03/07 07:45:35;;;;;;;13.98;9.35;;;;;;;-2.01;100.00;101643.19;5008704;28;20060;-62
2022/03/07 07:48:01;;;;;;;12.63;8.88;;;;;;;-1.96;100.00;101647.56;5007807;28;20114;-62
2022/03/07 07:50:27;;;;;;;12.45;8.52;;;;;;;-1.87;100.00;101655.50;5009623;28;20021;-62
2022/03/07 07:52:55;;;;;;;11.93;8.05;;;;;;;-1.80;100.00;101656.50;5008038;28;20027;-62
2022/03/07 07:55:21;;;;;;;12.73;7.70;;;;;;;-1.73;100.00;101648.94;5007010;28;20035;-63
2022/03/07 07:57:46;;;;;;;12.15;8.07;;;;;;;-1.63;100.00;101656.00;5012026;28;20834;-62
2022/03/07 08:00:15;;;;;;;17.63;7.93;;;;;;;-1.55;100.00;101667.31;5010846;28;20029;-62
2022/03/07 08:02:43;;;;;;;11.98;8.30;;;;;;;-1.45;100.00;101662.34;5011546;28;20021;-63
2022/03/07 08:05:09;;;;;;;13.98;7.22;;;;;;;-1.43;100.00;101650.34;5008850;28;20083;-62
2022/03/07 08:07:34;;;;;;;9.48;6.97;;;;;;;-1.33;100.00;101647.97;5010197;28;20219;-62
2022/03/07 08:10:01;;;;;;;11.15;7.55;;;;;;;-1.15;100.00;101657.75;5007552;28;20029;-63
2022/03/07 08:12:27;;;;;;;10.35;7.18;;;;;;;-1.07;100.00;101659.59;5008094;28;20024;-63
2022/03/07 08:14:53;;;;;;;12.70;7.50;;;;;;;-0.97;100.00;101657.16;5009437;28;20021;-63
2022/03/07 08:17:19;;;;;;;11.18;7.25;;;;;;;-0.87;100.00;101669.38;5009524;28;20044;-63
2022/03/07 08:19:44;;;;;;;9.65;5.88;;;;;;;-0.81;100.00;101661.75;5009316;28;20020;-63
2022/03/07 08:22:09;;;;;;;9.73;6.57;;;;;;;-0.75;100.00;101646.38;5007967;28;20031;-63
2022/03/07 08:24:35;;;;;;;8.77;6.18;;;;;;;-0.60;100.00;101657.78;5009326;28;20071;-63
2022/03/07 08:27:00;;;;;;;11.10;6.93;;;;;;;-0.52;100.00;101648.47;5008933;28;20031;-63
2022/03/07 08:29:25;;;;;;;9.88;6.20;;;;;;;-0.40;100.00;101652.91;5007216;28;20032;-63
2022/03/07 08:31:51;;;;;;;8.93;5.53;;;;;;;-0.34;100.00;101663.34;5008283;28;20023;-63
2022/03/07 08:34:16;;;;;;;7.65;5.32;;;;;;;-0.28;100.00;101668.59;5009372;28;20031;-63
2022/03/07 08:36:42;;;;;;;11.30;5.57;;;;;;;-0.21;100.00;101662.69;5008170;28;20020;-63
2022/03/07 08:39:07;;;;;;;11.48;6.43;;;;;;;-0.14;100.00;101669.66;5007328;28;20807;-63
2022/03/07 08:41:34;;;;;;;7.80;5.57;;;;;;;-0.10;100.00;101666.25;5007344;28;20029;-63
2022/03/07 08:44:00;;;;;;;7.93;5.07;;;;;;;-0.04;100.00;101662.91;5008070;28;20025;-63
2022/03/07 08:46:25;;;;;;;9.38;5.78;;;;;;;0.03;100.00;101669.03;5008432;28;20032;-63
2022/03/07 08:48:51;;;;;;;9.55;5.50;;;;;;;0.12;100.00;101669.13;5041547;28;20901;-63
2022/03/07 08:51:16;;;;;;;13.45;5.40;;;;;;;0.18;100.00;101670.06;5025498;28;20024;-63
2022/03/07 08:53:42;;;;;;;14.57;5.28;;;;;;;0.29;100.00;101663.31;5025441;28;20113;-61
2022/03/07 08:56:07;;;;;;;7.25;5.03;;;;;;;0.39;100.00;101653.94;5027157;28;20417;-62
2022/03/07 08:58:33;;;;;;;8.85;5.35;;;;;;;0.47;100.00;101655.75;5028409;28;20774;-62
2022/03/07 09:00:58;;;;;;;6.70;4.10;;;;;;;0.45;100.00;101654.00;5027920;28;20039;-62
2022/03/07 09:03:24;;;;;;;6.43;4.32;;;;;;;0.56;100.00;101657.59;5026501;28;20055;-64
2022/03/07 09:05:49;;;;;;;5.47;4.00;;;;;;;0.58;100.00;101650.69;5027165;28;20055;-64
2022/03/07 09:08:14;;;;;;;8.02;4.18;;;;;;;0.62;100.00;101646.44;5026503;28;20040;-63
2022/03/07 09:10:40;;;;;;;9.00;4.72;;;;;;;0.66;100.00;101643.91;5027058;28;20090;-62
2022/03/07 09:13:05;;;;;;;6.18;4.25;;;;;;;0.73;100.00;101643.13;5026360;28;20025;-62
2022/03/07 09:15:31;;;;;;;6.72;4.38;;;;;;;0.79;100.00;101650.94;5006483;28;20088;-62
2022/03/07 09:17:56;;;;;;;7.57;3.78;;;;;;;0.85;100.00;101645.81;5026362;28;20224;-62
2022/03/07 09:20:22;;;;;;;8.20;4.85;;;;;;;0.94;100.00;101638.16;5026723;28;21006;-62
2022/03/07 09:22:47;;;;;;;7.50;4.07;;;;;;;1.02;100.00;101643.38;5026698;28;20091;-62
2022/03/07 09:25:13;;;;;;;6.07;3.53;;;;;;;1.16;100.00;101646.06;5027933;28;20024;-62
2022/03/07 09:27:39;;;;;;;8.65;4.00;;;;;;;1.25;100.00;101639.25;5027473;28;20025;-62
2022/03/07 09:30:07;;;;;;;6.78;3.97;;;;;;;1.27;100.00;101639.28;5026019;28;20877;-62
2022/03/07 09:32:33;;;;;;;5.63;4.05;;;;;;;1.34;100.00;101625.53;5027447;28;20040;-64
2022/03/07 09:34:58;;;;;;;7.15;3.42;;;;;;;1.35;100.00;101641.03;5026857;28;20770;-63
2022/03/07 09:37:23;;;;;;;6.50;3.70;;;;;;;1.35;100.00;101637.63;5026870;28;20186;-62
2022/03/07 09:39:49;;;;;;;5.82;3.50;;;;;;;1.43;100.00;101635.94;5027465;28;20241;-63
2022/03/07 09:42:14;;;;;;;6.45;4.07;;;;;;;1.54;100.00;101649.81;5026976;28;20028;-63
2022/03/07 09:44:40;;;;;;;4.70;3.45;;;;;;;1.61;100.00;101654.19;5029268;28;20817;-63
2022/03/07 09:47:05;;;;;;;9.52;3.90;;;;;;;1.63;100.00;101644.69;5030187;28;20024;-62
2022/03/07 09:49:31;;;;;;;8.23;3.97;;;;;;;1.68;100.00;101639.56;5029345;28;20814;-62
2022/03/07 09:51:57;;;;;;;5.82;3.60;;;;;;;1.64;100.00;101641.25;5031460;28;20020;-63
2022/03/07 09:54:25;;;;;;;7.32;3.38;;;;;;;1.68;100.00;101627.47;5030456;28;20031;-62
2022/03/07 09:56:51;;;;;;;7.35;2.78;;;;;;;1.78;100.00;101634.44;5048124;28;20028;-62
2022/03/07 09:59:18;;;;;;;7.32;3.70;;;;;;;1.89;100.00;101624.97;5029374;28;20024;-63
2022/03/07 10:01:44;;;;;;;7.95;3.38;;;;;;;1.96;97.05;101626.72;5028878;28;20048;-62
2022/03/07 10:04:11;;;;;;;6.60;3.33;;;;;;;2.00;95.59;101627.63;5031659;28;20083;-62
2022/03/07 10:06:36;;;;;;;6.13;3.50;;;;;;;2.00;96.96;101619.84;5034126;28;20029;-62
2022/03/07 10:09:03;;;;;;;5.90;3.50;;;;;;;2.09;96.94;101640.63;5053686;28;20054;-64
2022/03/07 10:11:30;;;;;;;5.68;3.13;;;;;;;2.12;94.92;101627.69;5035045;28;20928;-62
2022/03/07 10:13:59;;;;;;;5.78;3.58;;;;;;;2.17;96.30;101632.88;5031750;28;20028;-63
2022/03/07 10:16:44;;;;;;;6.00;3.72;;;;;;;2.22;93.90;101605.25;5031298;28;20028;-62
2022/03/07 10:19:15;;;;;;;5.53;3.50;;;;;;;2.18;94.29;101606.09;5031863;28;20043;-63
2022/03/07 10:21:49;;;;;;;5.32;3.20;;;;;;;2.28;93.80;101610.44;5030504;28;20029;-62
2022/03/07 10:24:15;;;;;;;4.75;3.50;;;;;;;2.29;93.87;101622.56;5030639;28;20094;-62
2022/03/07 10:26:41;;;;;;;5.32;3.33;;;;;;;2.26;92.91;101604.41;5011456;28;20024;-63
2022/03/07 10:29:07;;;;;;;7.80;3.75;;;;;;;2.27;90.94;101606.13;5032280;28;20044;-62
2022/03/07 10:31:32;;;;;;;4.68;3.58;;;;;;;2.19;94.18;101584.50;5029798;28;20028;-64
2022/03/07 10:34:03;;;;;;;5.93;3.70;;;;;;;2.38;93.34;101601.84;5029743;28;20033;-63
2022/03/07 10:36:30;;;;;;;7.50;3.80;;;;;;;2.41;95.03;101601.84;5010721;28;20087;-62
2022/03/07 10:38:56;;;;;;;6.22;3.45;;;;;;;2.52;91.40;101601.00;5028166;28;20021;-63
2022/03/07 10:41:33;;;;;;;6.03;3.70;;;;;;;2.65;91.90;101607.06;5027119;28;20024;-62
2022/03/07 10:43:59;;;;;;;5.78;3.60;;;;;;;2.70;93.51;101595.00;5028084;28;20023;-63
2022/03/07 10:46:26;;;;;;;8.23;3.55;;;;;;;2.82;91.30;101592.38;5027838;28;20792;-63
2022/03/07 10:48:52;;;;;;;4.53;2.92;;;;;;;2.90;91.41;101598.47;5030038;28;20081;-63
2022/03/07 10:51:18;;;;;;;7.13;3.88;;;;;;;2.94;90.17;101591.53;5029583;28;20028;-63
2022/03/07 10:53:45;;;;;;;5.80;3.35;;;;;;;3.01;88.77;101595.84;5013927;28;20059;-63
2022/03/07 10:56:12;;;;;;;4.38;3.15;;;;;;;3.06;87.21;101600.19;5044729;28;20031;-63
2022/03/07 10:58:49;;;;;;;5.85;3.35;;;;;;;3.11;87.22;101594.13;5030515;28;20029;-63
2022/03/07 11:01:15;;;;;;;8.30;3.25;;;;;;;3.23;87.53;101586.31;5030394;28;20908;-63
2022/03/07 11:03:40;;;;;;;5.03;3.47;;;;;;;3.34;88.45;101580.25;5029122;28;20024;-63